Lantana, FL (33462)

1:32 PM EDT on March 27, 2015 (GMT -0400)
TWO GEMS Wind & Weather | | Change Station
CLOSE
Current Station
Personal Weather Station
Location: Lake Worth, FL
Elevation: 14 ft
Nearby Weather Stations

Elev 14 ft 26.59 °N, 80.11 °W | Updated 1 minute ago

Mostly Cloudy
Mostly Cloudy
86.4 °F
Feels Like 92 °F
N
0.0
Wind Variable Wind from SW
Gusts 0.0 mph

Today
High -- | Low -- °F
--% Chance of Precip.
Yesterday
High -- | Low -- °F
Precip. -- in
7:16 AM 7:34 PM
First Quarter, 54% visible
Pressure 29.88 in
Visibility 10.0 miles
Clouds Scattered Clouds 3000 ft
Mostly Cloudy 4000 ft
Mostly Cloudy 12000 ft
Heat Index 92 °F
Dew Point 71 °F
Humidity 61%
Rainfall 0.00 in
Snow Depth Not available.
UV 7 out of 12
Pollen 9.60 out of 12
Air Quality Not available.
Flu Activity Not available.
METAR KPBI 271653Z 23018G25KT 10SM SCT030CB BKN040 BKN120 33/21 A2988 RMK AO2 SLP117 CB NW-NE MOV NE CB DSNT N-NE T03280211

More Conditions Fewer Conditions

Pressure 29.88 in
Visibility 10.0 miles
Clouds Scattered Clouds 3000 ft
Mostly Cloudy 4000 ft
Mostly Cloudy 12000 ft
Heat Index 92 °F
Dew Point 71 °F
Humidity 61%
Rainfall 0.00 in
Snow Depth Not available.
UV 7 out of 12
Pollen 9.60 out of 12
Air Quality Not available.
Flu Activity Not available.
METAR KPBI 271653Z 23018G25KT 10SM SCT030CB BKN040 BKN120 33/21 A2988 RMK AO2 SLP117 CB NW-NE MOV NE CB DSNT N-NE T03280211

More Conditions Fewer Conditions

Nowcast | as of 12:47 PM EDT on March 27, 2015

At 1245 PM EDT...Doppler radar indicated a thunderstorm...near North County Airport...or near Palm Beach Gardens moving northeast at 20 mph. Expect heavy rain and winds gusting to 35 mph as this thunderstorm passes. Locations impacted include... West Palm Beach...Jupiter...Palm Beach Gardens...Tequesta and Juno Beach.

×

10-Day Weather Forecast

Almanac

Astronomy

Mar. 27, 2015 Rise Set
Actual Time
Civil Twilight
Nautical Twilight
Astronomical Twilight
Moon
Length of Visible Light
Length of Day
Tomorrow will be .
, % of the Moon is Illuminated

Today's Extremes

State Highs State Lows

Community

WunderPhotos

Upload Photos

1,808,770 photos uploaded!

WunderBlogs® & News

Nearby

Air Quality

  Air Quality AQ Index Pollutant
Not available.

Snow Depth

Station Depth Elevation

Earthquake Activity

City Distance Mag. Time & Date
Minimum magnitude displayed is 2.5.

Coastal Water Temperatures

Place Temperature

Stations

Nearby Weather Stations

Station Location Temp. Windchill Dew Point Humidity Wind Precip. Elev Updated Type